Аэропорт: Орск. Орск

ICAO: UWOR

METAR:
Информация по данной станции не доступна
METAR:
2020-06-04 01:59:00
TAF UWOR 040159Z 0403/0412 10006G13MPS 9999 BKN030 TX25/0412Z TN17/0403Z TEMPO 0403/0412 12008G16MPS BKN016CB